createdAt,value
2022-09-09T00:02:32.548Z,16.70
2022-09-09T00:05:04.308Z,16.70
2022-09-09T00:07:44.808Z,16.70
2022-09-09T00:10:21.731Z,16.60
2022-09-09T00:12:58.300Z,16.60
2022-09-09T00:15:30.714Z,16.50
2022-09-09T00:18:08.364Z,18.20
2022-09-09T00:20:42.543Z,16.60
2022-09-09T00:23:19.714Z,16.50
2022-09-09T00:25:56.158Z,16.50
2022-09-09T00:28:27.855Z,16.50
2022-09-09T00:30:58.488Z,15.90
2022-09-09T00:35:59.369Z,16.50
2022-09-09T00:38:36.612Z,16.60
2022-09-09T00:41:11.390Z,16.60
2022-09-09T00:43:41.321Z,16.60
2022-09-09T00:46:28.268Z,16.60
2022-09-09T00:49:04.634Z,16.60
2022-09-09T00:51:42.129Z,16.60
2022-09-09T00:54:39.875Z,16.50
2022-09-09T00:57:20.074Z,16.50
2022-09-09T00:59:51.317Z,16.50
2022-09-09T01:02:30.151Z,16.40
2022-09-09T01:05:07.258Z,16.40
2022-09-09T01:10:14.565Z,16.30
2022-09-09T01:12:44.755Z,16.40
2022-09-09T01:15:17.871Z,16.30
2022-09-09T01:17:54.053Z,16.30
2022-09-09T01:20:27.929Z,16.30
2022-09-09T01:23:11.239Z,16.20
2022-09-09T01:26:14.007Z,16.10
2022-09-09T01:28:44.307Z,15.90
2022-09-09T01:31:17.602Z,15.80
2022-09-09T01:36:21.263Z,15.80
2022-09-09T01:48:47.195Z,15.70
2022-09-09T01:53:45.761Z,15.70
2022-09-09T01:56:29.087Z,15.60
2022-09-09T01:59:10.300Z,17.90
2022-09-09T02:01:51.497Z,15.60
2022-09-09T02:04:34.401Z,15.60
2022-09-09T02:09:32.932Z,15.60
2022-09-09T02:12:10.631Z,15.70
2022-09-09T02:14:42.970Z,15.70
2022-09-09T02:17:13.228Z,15.70
2022-09-09T02:19:50.055Z,15.70
2022-09-09T02:22:20.221Z,15.60
2022-09-09T02:24:49.508Z,15.60
2022-09-09T02:27:20.457Z,15.60
2022-09-09T02:29:48.562Z,16.90
2022-09-09T02:32:21.001Z,15.60
2022-09-09T02:34:52.534Z,15.70
2022-09-09T02:37:23.993Z,15.80
2022-09-09T02:39:52.043Z,15.80
2022-09-09T02:44:50.169Z,15.60
2022-09-09T02:47:29.677Z,15.80
2022-09-09T02:50:14.971Z,15.70
2022-09-09T02:52:55.167Z,15.70
2022-09-09T02:55:37.845Z,15.60
2022-09-09T02:58:12.146Z,15.60
2022-09-09T03:03:10.970Z,15.50
2022-09-09T03:18:05.541Z,15.50
2022-09-09T03:23:03.672Z,15.40
2022-09-09T03:25:33.136Z,15.40
2022-09-09T03:35:28.590Z,15.20
2022-09-09T03:37:57.000Z,15.20
2022-09-09T03:45:24.043Z,15.30
2022-09-09T04:05:18.328Z,15.40
2022-09-09T04:07:46.599Z,15.40
2022-09-09T04:12:47.747Z,15.30
2022-09-09T04:15:19.767Z,15.40
2022-09-09T04:17:48.243Z,15.40
2022-09-09T04:25:14.886Z,15.60
2022-09-09T04:41:48.286Z,15.40
2022-09-09T04:47:57.910Z,15.30
2022-09-09T04:51:22.934Z,15.30
2022-09-09T05:30:30.525Z,15.20
2022-09-09T05:48:31.484Z,15.30
2022-09-09T05:53:33.571Z,15.30
2022-09-09T06:01:16.010Z,15.40
2022-09-09T06:03:46.981Z,15.50
2022-09-09T06:06:16.646Z,15.50
2022-09-09T06:08:46.430Z,15.50
2022-09-09T06:11:18.645Z,15.50
2022-09-09T06:16:16.747Z,15.70
2022-09-09T06:18:45.021Z,15.70
2022-09-09T06:21:21.844Z,16.90
2022-09-09T06:23:52.127Z,15.90
2022-09-09T06:26:25.357Z,15.90
2022-09-09T06:28:58.803Z,16.00
2022-09-09T06:31:44.097Z,16.00
2022-09-09T06:42:31.875Z,16.00
2022-09-09T06:47:32.190Z,16.00
2022-09-09T06:57:37.838Z,16.20
2022-09-09T07:00:07.486Z,16.20
2022-09-09T07:10:08.768Z,16.40
2022-09-09T07:23:12.800Z,16.40
2022-09-09T07:28:47.687Z,16.40
2022-09-09T07:31:27.427Z,16.40
2022-09-09T07:33:57.664Z,16.30
2022-09-09T08:07:18.555Z,16.80
2022-09-09T08:09:47.916Z,16.90
2022-09-09T08:12:16.015Z,16.90
2022-09-09T08:17:21.242Z,17.30
2022-09-09T08:22:19.372Z,17.30
2022-09-09T08:37:51.578Z,19.60
2022-09-09T08:40:28.347Z,17.70
2022-09-09T08:43:01.890Z,17.80
2022-09-09T08:45:45.201Z,17.80
2022-09-09T08:48:44.250Z,18.00
2022-09-09T08:53:47.682Z,17.90
2022-09-09T08:56:19.814Z,18.00
2022-09-09T08:58:51.375Z,17.90
2022-09-09T09:01:53.126Z,17.90
2022-09-09T09:04:39.861Z,17.80
2022-09-09T09:07:24.061Z,17.90
2022-09-09T09:10:01.818Z,18.00
2022-09-09T09:12:32.718Z,18.10
2022-09-09T09:15:01.937Z,18.10
2022-09-09T09:17:35.514Z,18.10
2022-09-09T09:20:08.703Z,18.20
2022-09-09T09:22:42.081Z,18.10
2022-09-09T09:25:19.265Z,18.00
2022-09-09T09:27:56.607Z,18.00
2022-09-09T09:30:30.773Z,18.00
2022-09-09T09:33:04.355Z,18.00
2022-09-09T09:35:42.007Z,18.10
2022-09-09T09:43:43.553Z,18.50
2022-09-09T09:46:35.860Z,21.70
2022-09-09T09:51:53.765Z,18.40
2022-09-09T09:54:28.651Z,18.40
2022-09-09T09:59:39.677Z,18.30
2022-09-09T10:02:20.411Z,18.30
2022-09-09T10:04:50.530Z,18.30
2022-09-09T10:07:25.285Z,18.30
2022-09-09T10:09:56.961Z,18.10
2022-09-09T10:12:40.249Z,18.10
2022-09-09T10:15:25.949Z,18.20
2022-09-09T10:18:05.877Z,18.10
2022-09-09T10:20:46.590Z,17.80
2022-09-09T10:23:31.889Z,17.90
2022-09-09T10:26:13.800Z,17.90
2022-09-09T10:29:03.651Z,17.80
2022-09-09T10:31:46.162Z,17.70
2022-09-09T10:34:31.165Z,17.60
2022-09-09T10:39:43.181Z,17.60
2022-09-09T10:42:16.070Z,17.50
2022-09-09T10:45:05.618Z,17.90
2022-09-09T10:47:58.274Z,18.00
2022-09-09T10:51:03.426Z,17.80
2022-09-09T10:53:46.565Z,17.70
2022-09-09T10:56:19.598Z,17.60
2022-09-09T10:58:52.644Z,17.50
2022-09-09T11:01:24.933Z,17.70
2022-09-09T11:04:07.153Z,17.80
2022-09-09T11:06:43.568Z,17.90
2022-09-09T11:09:21.665Z,17.90
2022-09-09T11:11:55.534Z,17.90
2022-09-09T11:14:34.092Z,17.90
2022-09-09T11:17:12.023Z,18.30
2022-09-09T11:19:51.682Z,18.50
2022-09-09T11:22:28.384Z,18.60
2022-09-09T11:25:01.248Z,19.20
2022-09-09T11:27:39.338Z,18.80
2022-09-09T11:30:44.149Z,18.80
2022-09-09T11:33:42.111Z,18.80
2022-09-09T11:36:48.535Z,19.00
2022-09-09T11:39:38.985Z,19.00
2022-09-09T11:42:19.253Z,19.00
2022-09-09T11:44:49.369Z,19.10
2022-09-09T11:47:30.672Z,19.00
2022-09-09T11:50:11.445Z,18.90
2022-09-09T11:52:44.858Z,18.90
2022-09-09T11:55:26.835Z,18.80
2022-09-09T11:58:00.897Z,18.80
2022-09-09T12:00:41.372Z,18.80
2022-09-09T12:03:38.339Z,18.90
2022-09-09T12:06:26.874Z,18.90
2022-09-09T12:09:01.114Z,19.00
2022-09-09T12:11:33.604Z,19.00
2022-09-09T12:14:04.207Z,19.00
2022-09-09T12:16:40.642Z,18.90
2022-09-09T12:19:22.107Z,18.80
2022-09-09T12:22:04.351Z,18.70
2022-09-09T12:24:41.265Z,18.70
2022-09-09T12:27:19.106Z,18.90
2022-09-09T12:29:56.016Z,19.10
2022-09-09T12:32:29.926Z,19.00
2022-09-09T12:35:02.491Z,19.30
2022-09-09T12:37:36.490Z,19.20
2022-09-09T12:40:07.106Z,19.30
2022-09-09T12:42:59.170Z,19.30
2022-09-09T12:45:44.068Z,19.70
2022-09-09T12:54:55.539Z,19.70
2022-09-09T12:57:28.294Z,19.80
2022-09-09T13:00:11.689Z,19.90
2022-09-09T13:02:52.589Z,19.90
2022-09-09T13:05:24.637Z,19.60
2022-09-09T13:10:36.989Z,19.60
2022-09-09T13:13:17.050Z,19.70
2022-09-09T13:15:52.474Z,19.60
2022-09-09T13:18:25.998Z,19.60
2022-09-09T13:26:35.273Z,19.60
2022-09-09T13:29:21.455Z,19.70
2022-09-09T13:31:58.438Z,19.60
2022-09-09T13:39:54.781Z,19.30
2022-09-09T13:42:29.948Z,19.10
2022-09-09T13:44:59.509Z,19.10
2022-09-09T13:47:32.542Z,19.20
2022-09-09T13:50:00.610Z,19.10
2022-09-09T13:52:34.143Z,19.80
2022-09-09T13:57:33.604Z,18.70
2022-09-09T14:00:05.050Z,18.70
2022-09-09T14:02:34.722Z,19.60
2022-09-09T14:05:03.185Z,18.70
2022-09-09T14:10:03.259Z,18.50
2022-09-09T14:12:33.324Z,18.40
2022-09-09T14:15:03.728Z,18.50
2022-09-09T14:17:32.433Z,18.30
2022-09-09T14:20:01.248Z,18.20
2022-09-09T14:38:47.246Z,18.50
2022-09-09T14:41:18.823Z,18.60
2022-09-09T14:44:11.700Z,18.50
2022-09-09T14:50:20.483Z,18.00
2022-09-09T14:53:23.113Z,18.10
2022-09-09T14:56:01.083Z,17.90
2022-09-09T14:58:34.274Z,17.80
2022-09-09T15:01:07.842Z,17.90
2022-09-09T15:06:13.779Z,18.00
2022-09-09T15:11:31.576Z,18.00
2022-09-09T15:16:30.533Z,18.10
2022-09-09T15:19:01.121Z,18.10
2022-09-09T15:21:35.050Z,18.10
2022-09-09T15:24:06.698Z,18.20
2022-09-09T15:46:00.922Z,18.10
2022-09-09T15:51:24.980Z,18.30
2022-09-09T15:53:58.085Z,18.60
2022-09-09T15:56:28.545Z,18.90
2022-09-09T15:58:58.680Z,19.50
2022-09-09T16:01:37.618Z,19.80
2022-09-09T16:09:17.595Z,19.00
2022-09-09T16:20:43.153Z,18.20
2022-09-09T16:40:24.525Z,19.50
2022-09-09T16:43:36.107Z,19.60
2022-09-09T16:51:49.645Z,18.80
2022-09-09T16:56:50.050Z,20.00
2022-09-09T16:59:22.591Z,18.70
2022-09-09T17:01:53.081Z,18.40
2022-09-09T17:04:24.724Z,18.30
2022-09-09T17:06:54.859Z,18.30
2022-09-09T17:09:49.874Z,18.10
2022-09-09T17:14:48.599Z,17.80
2022-09-09T17:27:26.052Z,17.60
2022-09-09T17:32:24.082Z,17.40
2022-09-09T17:37:21.434Z,17.30
2022-09-09T17:42:19.198Z,17.20
2022-09-09T17:47:17.044Z,17.10
2022-09-09T18:02:14.764Z,16.80
2022-09-09T18:17:16.556Z,16.50
2022-09-09T18:19:49.746Z,16.50
2022-09-09T18:34:56.463Z,16.30
2022-09-09T18:39:57.241Z,16.30
2022-09-09T18:50:12.960Z,16.00
2022-09-09T19:00:12.303Z,15.90
2022-09-09T19:02:40.737Z,15.90
2022-09-09T19:05:09.319Z,15.90
2022-09-09T19:12:39.267Z,15.90
2022-09-09T19:35:21.661Z,15.60
2022-09-09T19:50:36.947Z,15.00
2022-09-09T19:55:40.227Z,15.10
2022-09-09T20:03:19.330Z,15.10
2022-09-09T20:05:49.270Z,15.00
2022-09-09T20:10:55.364Z,15.00
2022-09-09T20:16:00.377Z,14.90
2022-09-09T20:18:31.148Z,14.90
2022-09-09T20:26:05.311Z,14.90
2022-09-09T20:31:05.329Z,14.80
2022-09-09T20:43:33.118Z,14.80
2022-09-09T20:46:04.015Z,14.70
2022-09-09T20:48:34.664Z,14.60
2022-09-09T20:51:10.006Z,14.60
2022-09-09T21:01:07.588Z,14.60
2022-09-09T21:03:38.080Z,14.60
2022-09-09T21:06:07.604Z,14.60
2022-09-09T21:13:37.456Z,14.60
2022-09-09T21:18:35.786Z,14.60
2022-09-09T21:21:05.528Z,14.60
2022-09-09T21:26:02.847Z,14.60
2022-09-09T21:33:31.897Z,14.80
2022-09-09T21:36:05.035Z,14.70
2022-09-09T21:41:05.667Z,14.90
2022-09-09T21:46:08.514Z,15.00
2022-09-09T21:48:36.918Z,15.10
2022-09-09T21:51:07.665Z,15.20
2022-09-09T21:53:36.030Z,15.10
2022-09-09T21:56:07.009Z,15.20
2022-09-09T21:58:42.808Z,15.10
2022-09-09T22:01:12.054Z,15.00
2022-09-09T22:03:42.513Z,14.90
2022-09-09T22:06:15.370Z,14.70
2022-09-09T22:11:14.759Z,14.50
2022-09-09T22:13:46.160Z,14.40
2022-09-09T22:16:18.246Z,14.40
2022-09-09T22:18:51.557Z,14.30
2022-09-09T22:21:20.324Z,14.30
2022-09-09T22:23:53.292Z,14.20
2022-09-09T22:28:51.855Z,14.10
2022-09-09T22:33:51.503Z,14.00
2022-09-09T22:38:48.679Z,13.90
2022-09-09T22:41:17.237Z,13.90
2022-09-09T22:46:16.744Z,13.90
2022-09-09T22:51:16.085Z,13.80
2022-09-09T22:53:47.810Z,13.70
2022-09-09T22:56:18.520Z,13.70
2022-09-09T22:58:48.010Z,13.70
2022-09-09T23:01:19.631Z,14.00
2022-09-09T23:03:49.393Z,13.60
2022-09-09T23:06:22.647Z,13.60
2022-09-09T23:08:56.058Z,13.60
2022-09-09T23:11:27.417Z,13.60
2022-09-09T23:13:57.723Z,13.50
2022-09-09T23:16:29.291Z,13.50
2022-09-09T23:21:28.445Z,13.30
2022-09-09T23:23:58.084Z,13.20
2022-09-09T23:26:27.227Z,13.20
2022-09-09T23:28:58.356Z,13.20
2022-09-09T23:31:30.140Z,13.20
2022-09-09T23:36:30.254Z,13.20
2022-09-09T23:38:58.943Z,13.10
2022-09-09T23:46:29.533Z,13.00
2022-09-09T23:51:30.771Z,13.00
2022-09-09T23:54:02.028Z,13.00
2022-09-09T23:56:32.514Z,13.00
2022-09-09T23:59:01.160Z,13.00
